createdAt,value
2019-04-26T00:00:47.769Z,13.4
2019-04-26T00:01:49.186Z,13.4
2019-04-26T00:02:50.569Z,13.4
2019-04-26T00:03:51.973Z,13.4
2019-04-26T00:04:53.360Z,13.4
2019-04-26T00:05:54.769Z,13.3
2019-04-26T00:06:56.198Z,13.4
2019-04-26T00:07:57.557Z,13.4
2019-04-26T00:08:58.978Z,13.3
2019-04-26T00:10:00.366Z,13.4
2019-04-26T00:11:01.790Z,13.4
2019-04-26T00:12:03.217Z,13.4
2019-04-26T00:13:04.732Z,13.4
2019-04-26T00:14:06.127Z,13.3
2019-04-26T00:15:07.582Z,13.4
2019-04-26T00:16:09.036Z,13.2
2019-04-26T00:17:11.272Z,13.3
2019-04-26T00:18:12.781Z,13.4
2019-04-26T00:19:13.825Z,13.3
2019-04-26T00:20:14.892Z,13.2
2019-04-26T00:21:16.375Z,13.3
2019-04-26T00:22:17.736Z,13.2
2019-04-26T00:23:19.180Z,13.2
2019-04-26T00:24:21.460Z,13.3
2019-04-26T00:25:22.814Z,13.3
2019-04-26T00:26:23.553Z,13.3
2019-04-26T00:27:24.976Z,13.2
2019-04-26T00:28:26.434Z,13.2
2019-04-26T00:29:27.896Z,13.2
2019-04-26T00:30:29.328Z,13.3
2019-04-26T00:31:30.791Z,13.2
2019-04-26T00:32:32.230Z,13.2
2019-04-26T00:33:33.726Z,13.3
2019-04-26T00:34:35.139Z,13.2
2019-04-26T00:35:46.950Z,13.2
2019-04-26T00:36:38.027Z,13.2
2019-04-26T00:37:39.515Z,13.2
2019-04-26T00:38:40.970Z,13.2
2019-04-26T00:39:42.420Z,13.1
2019-04-26T00:40:43.928Z,13.2
2019-04-26T00:41:45.415Z,13.2
2019-04-26T00:42:46.878Z,13.1
2019-04-26T00:43:48.347Z,13.2
2019-04-26T00:44:49.783Z,13.1
2019-04-26T00:45:51.236Z,13.2
2019-04-26T00:46:52.676Z,13.2
2019-04-26T00:47:54.148Z,13.1
2019-04-26T00:48:55.638Z,13.1
2019-04-26T00:49:57.063Z,13.1
2019-04-26T00:50:58.504Z,13.1
2019-04-26T00:51:59.936Z,13.1
2019-04-26T00:53:01.413Z,13.1
2019-04-26T00:54:02.881Z,13.0
2019-04-26T00:55:04.323Z,13.0
2019-04-26T00:56:05.773Z,13.0
2019-04-26T00:57:07.220Z,13.0
2019-04-26T00:58:08.746Z,13.0
2019-04-26T00:59:10.162Z,13.0
2019-04-26T01:00:11.601Z,13.0
2019-04-26T01:01:13.029Z,13.0
2019-04-26T01:02:15.209Z,12.9
2019-04-26T01:03:16.620Z,13.0
2019-04-26T01:04:17.329Z,12.9
2019-04-26T01:05:18.914Z,12.9
2019-04-26T01:06:20.910Z,12.9
2019-04-26T01:07:21.635Z,12.9
2019-04-26T01:08:23.469Z,13.0
2019-04-26T01:09:24.449Z,12.9
2019-04-26T01:10:25.921Z,12.9
2019-04-26T01:11:27.318Z,12.7
2019-04-26T01:12:28.762Z,12.8
2019-04-26T01:13:30.184Z,12.8
2019-04-26T01:14:31.651Z,12.7
2019-04-26T01:15:33.036Z,12.8
2019-04-26T01:16:34.444Z,12.7
2019-04-26T01:17:35.840Z,12.7
2019-04-26T01:18:37.269Z,12.7
2019-04-26T01:19:38.718Z,12.7
2019-04-26T01:20:40.137Z,12.7
2019-04-26T01:21:41.542Z,12.7
2019-04-26T01:22:42.986Z,12.8
2019-04-26T01:23:44.389Z,12.7
2019-04-26T01:24:45.801Z,12.8
2019-04-26T01:25:47.275Z,12.7
2019-04-26T01:26:48.837Z,12.7
2019-04-26T01:27:50.286Z,12.7
2019-04-26T01:28:51.728Z,12.7
2019-04-26T01:29:53.200Z,12.7
2019-04-26T01:30:54.631Z,12.7
2019-04-26T01:31:56.101Z,12.7
2019-04-26T01:32:57.502Z,12.6
2019-04-26T01:34:05.782Z,12.6
2019-04-26T01:36:12.359Z,12.6
2019-04-26T01:37:03.082Z,12.6
2019-04-26T01:38:04.490Z,12.5
2019-04-26T01:39:05.906Z,12.5
2019-04-26T01:40:07.290Z,12.6
2019-04-26T01:41:08.681Z,12.5
2019-04-26T01:42:10.070Z,12.4
2019-04-26T01:43:11.466Z,12.4
2019-04-26T01:44:12.856Z,12.5
2019-04-26T01:45:14.251Z,12.5
2019-04-26T01:46:15.635Z,12.4
2019-04-26T01:47:17.034Z,12.5
2019-04-26T01:48:18.427Z,12.5
2019-04-26T01:49:20.863Z,12.4
2019-04-26T01:50:22.073Z,12.4
2019-04-26T01:51:22.807Z,12.4
2019-04-26T01:52:24.095Z,12.5
2019-04-26T01:53:25.245Z,12.4
2019-04-26T01:54:27.758Z,12.5
2019-04-26T01:55:29.067Z,12.4
2019-04-26T01:56:29.374Z,12.4
2019-04-26T01:57:31.484Z,12.4
2019-04-26T01:58:32.124Z,12.5
2019-04-26T01:59:33.514Z,12.4
2019-04-26T02:00:34.904Z,12.5
2019-04-26T02:01:36.294Z,12.4
2019-04-26T02:02:37.697Z,12.4
2019-04-26T02:03:39.088Z,12.4
2019-04-26T02:04:40.479Z,12.4
2019-04-26T02:05:41.874Z,12.4
2019-04-26T02:06:43.269Z,12.5
2019-04-26T02:07:44.659Z,12.5
2019-04-26T02:08:46.046Z,12.5
2019-04-26T02:09:47.447Z,12.5
2019-04-26T02:10:48.899Z,12.5
2019-04-26T02:11:50.339Z,12.4
2019-04-26T02:12:51.748Z,12.5
2019-04-26T02:13:53.168Z,12.5
2019-04-26T02:14:54.711Z,12.5
2019-04-26T02:15:56.161Z,12.5
2019-04-26T02:16:57.570Z,12.4
2019-04-26T02:17:59.005Z,12.5
2019-04-26T02:19:00.426Z,12.5
2019-04-26T02:20:01.835Z,12.5
2019-04-26T02:21:03.249Z,12.5
2019-04-26T02:22:04.661Z,12.5
2019-04-26T02:23:06.076Z,12.5
2019-04-26T02:24:07.492Z,12.4
2019-04-26T02:25:08.903Z,12.5
2019-04-26T02:26:10.310Z,12.4
2019-04-26T02:27:11.769Z,12.4
2019-04-26T02:28:13.128Z,12.4
2019-04-26T02:29:14.552Z,12.4
2019-04-26T02:30:15.960Z,12.4
2019-04-26T02:31:17.380Z,12.5
2019-04-26T02:32:18.789Z,12.4
2019-04-26T02:33:20.213Z,12.4
2019-04-26T02:34:21.627Z,12.4
2019-04-26T02:35:23.053Z,12.4
2019-04-26T02:36:27.458Z,12.4
2019-04-26T02:37:27.021Z,12.5
2019-04-26T02:38:27.936Z,12.4
2019-04-26T02:39:30.214Z,12.5
2019-04-26T02:40:31.164Z,12.4
2019-04-26T02:41:32.024Z,12.4
2019-04-26T02:42:34.316Z,12.4
2019-04-26T02:43:35.224Z,12.4
2019-04-26T02:44:36.539Z,12.4
2019-04-26T02:45:38.168Z,12.4
2019-04-26T02:46:38.342Z,12.4
2019-04-26T02:47:39.782Z,12.5
2019-04-26T02:48:41.191Z,12.5
2019-04-26T02:49:42.643Z,12.4
2019-04-26T02:50:44.156Z,12.5
2019-04-26T02:51:45.569Z,12.5
2019-04-26T02:52:46.991Z,12.5
2019-04-26T02:53:48.403Z,12.5
2019-04-26T02:54:49.823Z,12.5
2019-04-26T02:55:51.200Z,12.5
2019-04-26T02:56:52.644Z,12.5
2019-04-26T02:57:54.066Z,12.5
2019-04-26T02:58:55.475Z,12.5
2019-04-26T02:59:56.953Z,12.5
2019-04-26T03:00:58.378Z,12.5
2019-04-26T03:01:59.796Z,12.5
2019-04-26T03:03:01.284Z,12.5
2019-04-26T03:04:02.698Z,12.4
2019-04-26T03:05:04.107Z,12.5
2019-04-26T03:06:05.529Z,12.4
2019-04-26T03:07:06.944Z,12.4
2019-04-26T03:08:08.381Z,12.4
2019-04-26T03:09:09.792Z,12.4
2019-04-26T03:10:11.206Z,12.4
2019-04-26T03:11:16.720Z,12.4
2019-04-26T03:12:14.006Z,12.4
2019-04-26T03:13:15.419Z,12.5
2019-04-26T03:14:16.854Z,12.4
2019-04-26T03:15:18.269Z,12.4
2019-04-26T03:16:19.684Z,12.4
2019-04-26T03:17:21.086Z,12.4
2019-04-26T03:18:22.499Z,12.3
2019-04-26T03:19:23.921Z,12.4
2019-04-26T03:20:25.342Z,12.4
2019-04-26T03:21:26.747Z,12.3
2019-04-26T03:22:28.216Z,12.3
2019-04-26T03:23:45.765Z,12.3
2019-04-26T03:24:32.361Z,12.3
2019-04-26T03:25:33.350Z,12.3
2019-04-26T03:26:35.168Z,12.2
2019-04-26T03:27:37.272Z,12.2
2019-04-26T03:28:37.664Z,12.3
2019-04-26T03:29:38.966Z,12.3
2019-04-26T03:30:47.860Z,12.2
2019-04-26T03:31:49.701Z,12.2
2019-04-26T03:32:50.370Z,12.2
2019-04-26T03:33:52.571Z,12.1
2019-04-26T03:34:52.989Z,12.2
2019-04-26T03:35:56.578Z,12.2
2019-04-26T03:36:47.646Z,12.1
2019-04-26T03:37:49.059Z,12.1
2019-04-26T03:38:50.463Z,12.1
2019-04-26T03:39:51.885Z,12.1
2019-04-26T03:40:53.295Z,12.2
2019-04-26T03:41:54.742Z,12.1
2019-04-26T03:42:56.347Z,12.1
2019-04-26T03:43:57.761Z,12.2
2019-04-26T03:44:59.173Z,12.2
2019-04-26T03:46:00.560Z,12.2
2019-04-26T03:47:01.956Z,12.1
2019-04-26T03:48:03.349Z,12.1
2019-04-26T03:49:04.777Z,12.1
2019-04-26T03:50:06.196Z,12.2
2019-04-26T03:51:07.600Z,12.2
2019-04-26T03:52:09.002Z,12.1
2019-04-26T03:53:10.379Z,12.1
2019-04-26T03:54:11.779Z,12.2
2019-04-26T03:55:13.170Z,12.2
2019-04-26T03:56:14.556Z,12.2
2019-04-26T03:57:15.961Z,12.2
2019-04-26T03:58:17.365Z,12.2
2019-04-26T03:59:18.770Z,12.1
2019-04-26T04:00:20.115Z,12.1
2019-04-26T04:01:21.504Z,12.1
2019-04-26T04:02:22.898Z,12.2
2019-04-26T04:03:26.778Z,12.2
2019-04-26T04:04:25.641Z,12.3
2019-04-26T04:05:27.316Z,12.3
2019-04-26T04:06:28.728Z,12.3
2019-04-26T04:07:39.103Z,12.2
2019-04-26T04:08:31.479Z,12.2
2019-04-26T04:09:32.846Z,12.2
2019-04-26T04:10:34.239Z,12.2
2019-04-26T04:11:37.504Z,12.3
2019-04-26T04:12:38.445Z,12.3
2019-04-26T04:13:40.521Z,12.3
2019-04-26T04:14:40.645Z,12.3
2019-04-26T04:15:42.580Z,12.3
2019-04-26T04:16:43.582Z,12.3
2019-04-26T04:17:45.654Z,12.3
2019-04-26T04:18:45.417Z,12.4
2019-04-26T04:19:47.442Z,12.4
2019-04-26T04:20:48.242Z,12.3
2019-04-26T04:21:49.256Z,12.4
2019-04-26T04:22:50.646Z,12.4
2019-04-26T04:23:52.037Z,12.3
2019-04-26T04:24:53.537Z,12.4
2019-04-26T04:25:54.780Z,12.3
2019-04-26T04:26:56.179Z,12.3
2019-04-26T04:27:57.571Z,12.3
2019-04-26T04:28:59.030Z,12.3
2019-04-26T04:30:00.415Z,12.3
2019-04-26T04:31:01.817Z,12.4
2019-04-26T04:32:03.215Z,12.4
2019-04-26T04:33:04.609Z,12.3
2019-04-26T04:34:06.011Z,12.4
2019-04-26T04:35:07.414Z,12.4
2019-04-26T04:36:08.820Z,12.4
2019-04-26T04:37:10.197Z,12.3
2019-04-26T04:38:11.602Z,12.4
2019-04-26T04:39:13.348Z,12.3
2019-04-26T04:40:14.405Z,12.3
2019-04-26T04:41:15.834Z,12.4
2019-04-26T04:42:17.231Z,12.4
2019-04-26T04:43:18.798Z,12.4
2019-04-26T04:44:20.031Z,12.4
2019-04-26T04:45:21.457Z,12.4
2019-04-26T04:46:22.919Z,12.4
2019-04-26T04:47:25.565Z,12.5
2019-04-26T04:48:25.583Z,12.5
2019-04-26T04:49:26.978Z,12.4
2019-04-26T04:50:28.371Z,12.4
2019-04-26T04:51:29.771Z,12.4
2019-04-26T04:52:31.164Z,12.5
2019-04-26T04:53:35.611Z,12.5
2019-04-26T04:54:37.212Z,12.4
2019-04-26T04:55:38.635Z,12.5
2019-04-26T04:56:40.003Z,12.5
2019-04-26T04:57:41.969Z,12.5
2019-04-26T04:58:43.568Z,12.4
2019-04-26T04:59:44.215Z,12.5
2019-04-26T05:00:45.631Z,12.5
2019-04-26T05:01:48.239Z,12.5
2019-04-26T05:02:48.663Z,12.4
2019-04-26T05:03:50.969Z,12.5
2019-04-26T05:04:51.242Z,12.4
2019-04-26T05:05:54.341Z,12.5
2019-04-26T05:06:54.002Z,12.4
2019-04-26T05:08:05.404Z,12.4
2019-04-26T05:08:57.258Z,12.5
2019-04-26T05:09:58.650Z,12.5
2019-04-26T05:11:00.146Z,12.4
2019-04-26T05:12:01.597Z,12.4
2019-04-26T05:13:03.004Z,12.5
2019-04-26T05:14:04.400Z,12.5
2019-04-26T05:15:05.800Z,12.5
2019-04-26T05:16:07.196Z,12.5
2019-04-26T05:17:08.595Z,12.5
2019-04-26T05:18:09.999Z,12.5
2019-04-26T05:19:11.423Z,12.5
2019-04-26T05:20:12.824Z,12.5
2019-04-26T05:21:14.219Z,12.5
2019-04-26T05:22:15.614Z,12.5
2019-04-26T05:23:17.172Z,12.5
2019-04-26T05:24:18.514Z,12.5
2019-04-26T05:25:19.940Z,12.4
2019-04-26T05:26:21.343Z,12.4
2019-04-26T05:27:22.828Z,12.5
2019-04-26T05:28:24.245Z,12.5
2019-04-26T05:29:25.653Z,12.5
2019-04-26T05:30:27.047Z,12.4
2019-04-26T05:31:28.487Z,12.4
2019-04-26T05:32:29.880Z,12.4
2019-04-26T05:33:31.299Z,12.4
2019-04-26T05:34:32.723Z,12.3
2019-04-26T05:35:34.117Z,12.3
2019-04-26T05:36:35.514Z,12.3
2019-04-26T05:37:37.227Z,12.3
2019-04-26T05:38:38.273Z,12.4
2019-04-26T05:39:39.724Z,12.4
2019-04-26T05:40:41.116Z,12.4
2019-04-26T05:41:42.508Z,12.4
2019-04-26T05:42:43.907Z,12.3
2019-04-26T05:43:45.302Z,12.4
2019-04-26T05:44:48.440Z,12.4
2019-04-26T05:45:49.973Z,12.4
2019-04-26T05:46:50.288Z,12.4
2019-04-26T05:48:03.233Z,12.5
2019-04-26T05:48:52.181Z,12.5
2019-04-26T05:49:53.758Z,12.5
2019-04-26T05:50:55.824Z,12.5
2019-04-26T05:51:56.300Z,12.4
2019-04-26T05:52:57.710Z,12.5
2019-04-26T05:54:01.376Z,12.5
2019-04-26T05:55:02.681Z,12.4
2019-04-26T05:56:04.002Z,12.4
2019-04-26T05:57:05.706Z,12.4
2019-04-26T05:58:07.469Z,12.5
2019-04-26T05:59:09.379Z,12.4
2019-04-26T06:00:11.144Z,12.5
2019-04-26T06:01:13.693Z,12.5
2019-04-26T06:02:15.391Z,12.5
2019-04-26T06:03:17.097Z,12.4
2019-04-26T06:04:18.966Z,12.4
2019-04-26T06:05:21.068Z,12.5
2019-04-26T06:06:23.708Z,12.5
2019-04-26T06:07:25.386Z,12.5
2019-04-26T06:08:31.511Z,12.5
2019-04-26T06:09:28.792Z,12.5
2019-04-26T06:10:30.801Z,12.5
2019-04-26T06:11:32.677Z,12.5
2019-04-26T06:12:34.305Z,12.4
2019-04-26T06:13:36.421Z,12.5
2019-04-26T06:14:38.415Z,12.5
2019-04-26T06:15:40.147Z,12.5
2019-04-26T06:16:42.443Z,12.5
2019-04-26T06:17:44.599Z,12.5
2019-04-26T06:18:47.017Z,12.4
2019-04-26T06:19:48.848Z,12.5
2019-04-26T06:20:51.132Z,12.4
2019-04-26T06:21:53.712Z,12.4
2019-04-26T06:22:57.472Z,12.4
2019-04-26T06:23:57.798Z,12.5
2019-04-26T06:24:58.348Z,12.6
2019-04-26T06:26:01.388Z,12.7
2019-04-26T06:27:12.730Z,12.6
2019-04-26T06:28:04.170Z,12.6
2019-04-26T06:29:05.941Z,12.7
2019-04-26T06:30:07.711Z,12.7
2019-04-26T06:31:09.913Z,12.8
2019-04-26T06:32:11.636Z,12.7
2019-04-26T06:33:13.313Z,12.7
2019-04-26T06:34:15.045Z,12.7
2019-04-26T06:35:19.880Z,12.8
2019-04-26T06:36:19.156Z,12.8
2019-04-26T06:37:20.964Z,12.8
2019-04-26T06:38:22.878Z,12.7
2019-04-26T06:39:24.547Z,12.7
2019-04-26T06:40:26.371Z,12.8
2019-04-26T06:41:28.443Z,12.7
2019-04-26T06:42:30.383Z,12.7
2019-04-26T06:43:32.096Z,12.7
2019-04-26T06:44:34.130Z,12.7
2019-04-26T06:45:35.741Z,12.7
2019-04-26T06:46:37.513Z,12.6
2019-04-26T06:47:39.235Z,12.5
2019-04-26T06:48:40.929Z,12.7
2019-04-26T06:49:42.544Z,12.7
2019-04-26T06:50:44.142Z,12.7
2019-04-26T06:51:45.770Z,12.7
2019-04-26T06:52:47.463Z,12.7
2019-04-26T06:53:49.196Z,12.7
2019-04-26T06:54:50.765Z,12.7
2019-04-26T06:55:52.490Z,12.6
2019-04-26T06:56:54.074Z,12.7
2019-04-26T06:57:55.648Z,12.7
2019-04-26T06:58:57.919Z,12.7
2019-04-26T06:59:59.190Z,12.7
2019-04-26T07:01:01.083Z,12.7
2019-04-26T07:02:02.881Z,12.7
2019-04-26T07:03:03.892Z,12.7
2019-04-26T07:04:05.887Z,12.8
2019-04-26T07:05:07.711Z,12.7
2019-04-26T07:06:09.520Z,12.7
2019-04-26T07:07:11.515Z,12.7
2019-04-26T07:08:13.205Z,12.7
2019-04-26T07:09:15.312Z,12.8
2019-04-26T07:10:17.275Z,12.8
2019-04-26T07:11:19.878Z,12.7
2019-04-26T07:12:21.807Z,12.7
2019-04-26T07:13:23.499Z,12.7
2019-04-26T07:14:25.757Z,12.7
2019-04-26T07:15:28.797Z,12.7
2019-04-26T07:16:29.422Z,12.7
2019-04-26T07:17:31.365Z,12.6
2019-04-26T07:18:33.642Z,12.5
2019-04-26T07:19:35.318Z,12.5
2019-04-26T07:20:37.015Z,12.6
2019-04-26T07:21:38.860Z,12.6
2019-04-26T07:22:41.030Z,12.6
2019-04-26T07:23:42.904Z,12.5
2019-04-26T07:24:44.611Z,12.7
2019-04-26T07:25:46.416Z,12.7
2019-04-26T07:26:48.018Z,12.8
2019-04-26T07:27:49.808Z,12.7
2019-04-26T07:28:51.383Z,12.8
2019-04-26T07:29:53.388Z,12.7
2019-04-26T07:30:57.805Z,12.8
2019-04-26T07:31:59.335Z,12.8
2019-04-26T07:33:02.363Z,12.8
2019-04-26T07:34:03.429Z,12.8
2019-04-26T07:35:04.566Z,12.8
2019-04-26T07:36:06.121Z,12.8
2019-04-26T07:37:07.591Z,12.7
2019-04-26T07:38:09.181Z,12.7
2019-04-26T07:39:18.503Z,12.7
2019-04-26T07:40:12.886Z,12.7
2019-04-26T07:41:14.556Z,12.7
2019-04-26T07:42:16.232Z,12.7
2019-04-26T07:43:17.916Z,12.7
2019-04-26T07:44:19.498Z,12.8
2019-04-26T07:45:21.981Z,12.9
2019-04-26T07:46:24.147Z,12.7
2019-04-26T07:47:25.894Z,12.8
2019-04-26T07:48:27.500Z,12.8
2019-04-26T07:49:29.263Z,12.8
2019-04-26T07:50:31.168Z,12.9
2019-04-26T07:51:32.981Z,12.9
2019-04-26T07:52:34.750Z,12.8
2019-04-26T07:53:36.561Z,12.8
2019-04-26T07:54:38.365Z,12.8
2019-04-26T07:55:40.048Z,12.8
2019-04-26T07:56:41.615Z,12.8
2019-04-26T07:57:43.204Z,12.8
2019-04-26T07:58:45.008Z,12.9
2019-04-26T07:59:46.539Z,12.9
2019-04-26T08:00:48.126Z,12.8
2019-04-26T08:01:49.694Z,12.8
2019-04-26T08:02:51.163Z,12.9
2019-04-26T08:03:52.774Z,12.8
2019-04-26T08:04:54.313Z,12.9
2019-04-26T08:05:55.844Z,12.9
2019-04-26T08:06:57.590Z,12.9
2019-04-26T08:07:59.214Z,12.9
2019-04-26T08:09:00.995Z,12.9
2019-04-26T08:10:03.613Z,12.9
2019-04-26T08:11:04.595Z,12.9
2019-04-26T08:12:06.085Z,12.9
2019-04-26T08:13:08.038Z,12.9
2019-04-26T08:14:09.147Z,13.0
2019-04-26T08:15:11.315Z,12.9
2019-04-26T08:16:12.509Z,12.9
2019-04-26T08:17:14.792Z,13.0
2019-04-26T08:18:31.295Z,13.1
2019-04-26T08:19:31.982Z,13.2
2019-04-26T08:20:37.626Z,13.1
2019-04-26T08:21:42.779Z,13.2
2019-04-26T08:22:41.000Z,13.2
2019-04-26T08:23:43.255Z,13.2
2019-04-26T08:24:44.209Z,13.1
2019-04-26T08:25:45.933Z,13.2
2019-04-26T08:26:49.055Z,13.2
2019-04-26T08:27:50.630Z,13.2
2019-04-26T08:28:52.185Z,13.2
2019-04-26T08:29:58.748Z,13.2
2019-04-26T08:31:00.478Z,13.2
2019-04-26T08:32:02.092Z,13.2
2019-04-26T08:33:12.845Z,13.1
2019-04-26T08:34:10.757Z,13.2
2019-04-26T08:35:16.833Z,13.3
2019-04-26T08:36:15.920Z,13.3
2019-04-26T08:37:19.004Z,13.3
2019-04-26T08:38:22.470Z,13.2
2019-04-26T08:39:29.732Z,13.2
2019-04-26T08:40:32.625Z,13.3
2019-04-26T08:41:35.227Z,13.3
2019-04-26T08:42:35.593Z,13.3
2019-04-26T08:43:37.152Z,13.3
2019-04-26T08:44:38.618Z,13.2
2019-04-26T08:45:40.530Z,13.3
2019-04-26T08:46:41.669Z,13.3
2019-04-26T08:47:45.931Z,13.4
2019-04-26T08:48:44.722Z,13.4
2019-04-26T08:49:46.230Z,13.4
2019-04-26T08:50:47.734Z,13.5
2019-04-26T08:51:52.238Z,13.5
2019-04-26T08:52:50.905Z,13.4
2019-04-26T08:53:52.454Z,13.5
2019-04-26T08:54:53.990Z,13.5
2019-04-26T08:55:55.518Z,13.4
2019-04-26T08:56:57.031Z,13.5
2019-04-26T08:57:58.545Z,13.4
2019-04-26T08:59:00.134Z,13.4
2019-04-26T09:00:01.843Z,13.4
2019-04-26T09:01:03.439Z,13.5
2019-04-26T09:02:04.994Z,13.5
2019-04-26T09:03:11.705Z,13.6
2019-04-26T09:04:07.851Z,13.6
2019-04-26T09:05:09.393Z,13.6
2019-04-26T09:06:10.870Z,13.7
2019-04-26T09:07:12.384Z,13.6
2019-04-26T09:08:13.912Z,13.8
2019-04-26T09:09:18.151Z,13.8
2019-04-26T09:10:16.859Z,13.8
2019-04-26T09:11:25.899Z,13.8
2019-04-26T09:12:23.113Z,13.8
2019-04-26T09:13:21.303Z,13.8
2019-04-26T09:14:22.809Z,13.8
2019-04-26T09:15:24.434Z,13.8
2019-04-26T09:16:26.178Z,13.9
2019-04-26T09:17:31.716Z,13.9
2019-04-26T09:18:36.731Z,14.0
2019-04-26T09:19:32.171Z,14.0
2019-04-26T09:20:32.648Z,14.0
2019-04-26T09:21:34.387Z,14.0
2019-04-26T09:22:36.237Z,14.1
2019-04-26T09:23:40.247Z,14.1
2019-04-26T09:24:39.115Z,14.2
2019-04-26T09:25:40.700Z,14.2
2019-04-26T09:26:46.278Z,14.4
2019-04-26T09:27:43.712Z,14.3
2019-04-26T09:28:45.441Z,14.5
2019-04-26T09:29:47.075Z,14.5
2019-04-26T09:30:48.621Z,14.6
2019-04-26T09:31:50.496Z,14.6
2019-04-26T09:32:51.642Z,14.7
2019-04-26T09:33:53.206Z,14.7
2019-04-26T09:34:54.794Z,14.7
2019-04-26T09:35:56.348Z,14.7
2019-04-26T09:36:57.913Z,14.7
2019-04-26T09:37:59.451Z,14.8
2019-04-26T09:39:03.846Z,14.8
2019-04-26T09:40:10.007Z,14.8
2019-04-26T09:41:04.102Z,14.8
2019-04-26T09:42:09.493Z,14.9
2019-04-26T09:43:10.395Z,15.0
2019-04-26T09:44:08.647Z,15.0
2019-04-26T09:45:10.285Z,15.0
2019-04-26T09:46:17.741Z,15.1
2019-04-26T09:47:19.280Z,15.0
2019-04-26T09:48:20.751Z,14.9
2019-04-26T09:49:22.439Z,15.0
2019-04-26T09:50:23.925Z,15.0
2019-04-26T09:51:25.467Z,15.0
2019-04-26T09:52:26.962Z,15.1
2019-04-26T09:53:28.428Z,15.0
2019-04-26T09:54:29.921Z,15.1
2019-04-26T09:55:35.418Z,15.1
2019-04-26T09:56:33.063Z,15.1
2019-04-26T09:57:34.724Z,15.1
2019-04-26T09:58:36.258Z,15.2
2019-04-26T09:59:40.006Z,15.1
2019-04-26T10:00:39.337Z,15.1
2019-04-26T10:01:40.868Z,15.2
2019-04-26T10:02:42.395Z,15.1
2019-04-26T10:03:43.971Z,15.0
2019-04-26T10:04:45.547Z,14.9
2019-04-26T10:05:47.123Z,15.0
2019-04-26T10:06:48.754Z,15.0
2019-04-26T10:07:50.234Z,15.0
2019-04-26T10:08:52.474Z,15.1
2019-04-26T10:09:56.459Z,15.1
2019-04-26T10:10:55.062Z,15.2
2019-04-26T10:11:56.724Z,15.2
2019-04-26T10:12:58.276Z,15.3
2019-04-26T10:13:59.772Z,15.5
2019-04-26T10:15:01.284Z,15.4
2019-04-26T10:16:04.068Z,15.5
2019-04-26T10:17:04.196Z,15.4
2019-04-26T10:18:07.993Z,15.5
2019-04-26T10:19:07.343Z,15.4
2019-04-26T10:20:08.878Z,15.5
2019-04-26T10:21:10.468Z,15.3
2019-04-26T10:22:12.094Z,15.3
2019-04-26T10:23:13.587Z,15.3
2019-04-26T10:24:15.087Z,15.4
2019-04-26T10:25:16.991Z,15.4
2019-04-26T10:26:18.146Z,15.4
2019-04-26T10:27:19.564Z,15.5
2019-04-26T10:28:21.163Z,15.5
2019-04-26T10:29:25.698Z,15.6
2019-04-26T10:30:24.173Z,15.6
2019-04-26T10:31:25.654Z,15.6
2019-04-26T10:32:27.914Z,15.7
2019-04-26T10:33:28.646Z,15.7
2019-04-26T10:34:30.121Z,15.6
2019-04-26T10:35:31.654Z,15.6
2019-04-26T10:36:33.189Z,15.7
2019-04-26T10:37:39.530Z,15.6
2019-04-26T10:38:36.365Z,15.5
2019-04-26T10:39:37.830Z,15.6
2019-04-26T10:40:39.419Z,15.6
2019-04-26T10:41:40.994Z,15.7
2019-04-26T10:42:42.536Z,15.7
2019-04-26T10:43:44.198Z,15.7
2019-04-26T10:44:45.795Z,15.8
2019-04-26T10:45:53.637Z,16.0
2019-04-26T10:46:55.412Z,15.9
2019-04-26T10:47:50.580Z,16.0
2019-04-26T10:48:52.099Z,16.0
2019-04-26T10:49:54.393Z,16.0
2019-04-26T10:50:55.190Z,16.1
2019-04-26T10:51:56.697Z,16.2
2019-04-26T10:52:58.377Z,16.1
2019-04-26T10:54:01.722Z,16.2
2019-04-26T10:55:01.255Z,16.3
2019-04-26T10:56:02.808Z,16.4
2019-04-26T10:57:04.451Z,16.6
2019-04-26T10:58:05.968Z,16.5
2019-04-26T10:59:09.810Z,16.5
2019-04-26T11:00:10.408Z,16.5
2019-04-26T11:01:11.909Z,16.7
2019-04-26T11:02:13.461Z,16.7
2019-04-26T11:03:14.941Z,16.7
2019-04-26T11:04:16.482Z,16.7
2019-04-26T11:05:19.294Z,16.7
2019-04-26T11:06:19.396Z,16.7
2019-04-26T11:07:20.928Z,16.7
2019-04-26T11:08:22.473Z,16.7
2019-04-26T11:09:23.998Z,16.7
2019-04-26T11:10:25.509Z,16.8
2019-04-26T11:11:27.069Z,16.8
2019-04-26T11:12:28.570Z,16.7
2019-04-26T11:13:30.208Z,16.8
2019-04-26T11:14:31.702Z,16.8
2019-04-26T11:15:34.056Z,16.8
2019-04-26T11:16:37.171Z,16.8
2019-04-26T11:17:36.716Z,16.7
2019-04-26T11:18:38.284Z,16.7
2019-04-26T11:19:39.810Z,16.8
2019-04-26T11:20:45.342Z,16.8
2019-04-26T11:21:42.703Z,16.8
2019-04-26T11:22:44.253Z,16.9
2019-04-26T11:23:46.972Z,16.9
2019-04-26T11:24:50.110Z,16.9
2019-04-26T11:25:49.147Z,16.9
2019-04-26T11:26:50.847Z,16.8
2019-04-26T11:27:52.528Z,16.9
2019-04-26T11:28:55.607Z,17.0
2019-04-26T11:30:00.042Z,17.1
2019-04-26T11:30:57.667Z,17.2
2019-04-26T11:32:02.550Z,17.2
2019-04-26T11:33:01.000Z,17.2
2019-04-26T11:34:05.301Z,17.2
2019-04-26T11:35:04.740Z,17.3
2019-04-26T11:36:07.278Z,17.4
2019-04-26T11:37:07.943Z,17.3
2019-04-26T11:38:09.492Z,17.2
2019-04-26T11:39:11.874Z,17.2
2019-04-26T11:40:14.511Z,17.3
2019-04-26T11:41:14.902Z,17.3
2019-04-26T11:42:16.555Z,17.4
2019-04-26T11:43:19.451Z,17.4
2019-04-26T11:44:23.238Z,17.4
2019-04-26T11:45:21.368Z,17.6
2019-04-26T11:46:28.933Z,17.5
2019-04-26T11:47:24.422Z,17.6
2019-04-26T11:48:28.953Z,17.4
2019-04-26T11:49:27.612Z,17.5
2019-04-26T11:50:29.310Z,17.4
2019-04-26T11:51:30.838Z,17.4
2019-04-26T11:52:35.891Z,17.5
2019-04-26T11:53:34.014Z,17.6
2019-04-26T11:54:35.603Z,17.5
2019-04-26T11:55:37.207Z,17.7
2019-04-26T11:56:38.929Z,17.6
2019-04-26T11:57:43.593Z,17.5
2019-04-26T11:58:42.101Z,17.5
2019-04-26T11:59:43.740Z,17.6
2019-04-26T12:00:45.497Z,17.6
2019-04-26T12:01:47.037Z,17.6
2019-04-26T12:02:50.769Z,17.7
2019-04-26T12:03:51.628Z,17.7
2019-04-26T12:04:53.694Z,17.7
2019-04-26T12:05:53.906Z,17.7
2019-04-26T12:06:55.485Z,17.9
2019-04-26T12:07:57.107Z,17.8
2019-04-26T12:08:58.641Z,17.8
2019-04-26T12:10:00.315Z,17.8
2019-04-26T12:11:01.895Z,17.8
2019-04-26T12:12:04.801Z,17.7
2019-04-26T12:13:05.775Z,17.8
2019-04-26T12:14:19.209Z,17.8
2019-04-26T12:15:08.446Z,17.8
2019-04-26T12:16:09.971Z,17.9
2019-04-26T12:17:10.996Z,18.0
2019-04-26T12:18:12.786Z,17.9
2019-04-26T12:19:17.730Z,18.1
2019-04-26T12:20:15.706Z,18.1
2019-04-26T12:21:17.183Z,18.1
2019-04-26T12:22:18.810Z,18.2
2019-04-26T12:23:21.750Z,18.3
2019-04-26T12:24:25.225Z,18.2
2019-04-26T12:25:23.619Z,18.3
2019-04-26T12:26:25.173Z,18.3
2019-04-26T12:27:30.586Z,18.4
2019-04-26T12:28:28.336Z,18.5
2019-04-26T12:29:29.913Z,18.4
2019-04-26T12:30:31.788Z,18.6
2019-04-26T12:31:33.417Z,18.6
2019-04-26T12:32:35.025Z,18.6
2019-04-26T12:33:39.085Z,18.5
2019-04-26T12:34:38.229Z,18.4
2019-04-26T12:35:39.925Z,18.4
2019-04-26T12:36:41.538Z,18.5
2019-04-26T12:37:43.061Z,18.6
2019-04-26T12:38:44.670Z,18.5
2019-04-26T12:39:46.177Z,18.6
2019-04-26T12:40:47.655Z,18.8
2019-04-26T12:41:49.480Z,18.8
2019-04-26T12:42:51.055Z,18.7
2019-04-26T12:43:54.441Z,18.7
2019-04-26T12:44:54.360Z,18.7
2019-04-26T12:45:55.912Z,18.7
2019-04-26T12:46:59.453Z,18.7
2019-04-26T12:47:58.959Z,18.6
2019-04-26T12:49:00.612Z,18.7
2019-04-26T12:50:02.223Z,18.8
2019-04-26T12:51:04.109Z,19.0
2019-04-26T12:52:05.605Z,19.1
2019-04-26T12:53:07.157Z,19.1
2019-04-26T12:54:09.884Z,19.1
2019-04-26T12:55:13.654Z,19.1
2019-04-26T12:56:11.813Z,18.9
2019-04-26T12:57:16.101Z,19.0
2019-04-26T12:58:15.197Z,19.0
2019-04-26T12:59:16.405Z,19.0
2019-04-26T13:00:18.034Z,18.9
2019-04-26T13:01:19.602Z,18.9
2019-04-26T13:02:21.960Z,18.9
2019-04-26T13:03:24.932Z,18.9
2019-04-26T13:04:35.517Z,19.1
2019-04-26T13:05:25.814Z,19.2
2019-04-26T13:06:27.775Z,19.4
2019-04-26T13:07:28.865Z,19.5
2019-04-26T13:08:30.419Z,19.8
2019-04-26T13:09:32.010Z,19.9
2019-04-26T13:10:35.469Z,20.0
2019-04-26T13:11:35.121Z,20.0
2019-04-26T13:12:36.692Z,19.9
2019-04-26T13:13:38.190Z,19.8
2019-04-26T13:14:42.947Z,19.8
2019-04-26T13:15:41.301Z,19.8
2019-04-26T13:16:42.842Z,19.7
2019-04-26T13:17:44.386Z,19.9
2019-04-26T13:18:46.930Z,20.1
2019-04-26T13:19:49.468Z,20.1
2019-04-26T13:20:50.211Z,20.4
2019-04-26T13:21:51.740Z,20.5
2019-04-26T13:22:54.188Z,20.7
2019-04-26T13:23:54.988Z,20.9
2019-04-26T13:24:56.435Z,20.9
2019-04-26T13:25:59.678Z,21.0
2019-04-26T13:27:00.207Z,21.0
2019-04-26T13:28:01.767Z,21.1
2019-04-26T13:29:03.274Z,21.0
2019-04-26T13:30:06.814Z,21.0
2019-04-26T13:31:06.340Z,20.9
2019-04-26T13:32:07.869Z,20.9
2019-04-26T13:33:10.095Z,20.6
2019-04-26T13:34:12.196Z,20.5
2019-04-26T13:35:13.630Z,20.3
2019-04-26T13:36:15.236Z,20.1
2019-04-26T13:37:18.053Z,20.0
2019-04-26T13:38:19.415Z,20.1
2019-04-26T13:39:22.459Z,20.0
2019-04-26T13:40:25.751Z,20.0
2019-04-26T13:41:24.087Z,19.9